Time;durP1;ratioP1;P1;durP2;ratioP2;P2;SDS_P1;SDS_P2;PMS_P1;PMS_P2;Temp;Humidity;BMP_temperature;BMP_pressure;BME280_temperature;BME280_humidity;BME280_pressure;Samples;Min_cycle;Max_cycle;Signal;HPM_P1;HPM_P2
2022/11/07 00:02:07;;;;;;;14.30;11.13;;;;;;;7.31;100.00;100591.53;4983260;28;20243;-53
2022/11/07 00:04:34;;;;;;;11.00;9.87;;;;;;;7.10;100.00;100600.00;4985390;28;20629;-53
2022/11/07 00:07:01;;;;;;;15.43;11.60;;;;;;;7.14;100.00;100606.13;4982016;28;20246;-53
2022/11/07 00:09:27;;;;;;;16.00;12.17;;;;;;;7.12;100.00;100608.72;4980374;28;20245;-54
2022/11/07 00:11:54;;;;;;;13.37;10.70;;;;;;;7.12;100.00;100595.66;4980456;28;20229;-53
2022/11/07 00:14:20;;;;;;;15.13;11.30;;;;;;;7.33;100.00;100594.13;4978734;28;20245;-54
2022/11/07 00:16:48;;;;;;;15.77;11.93;;;;;;;7.25;100.00;100595.81;4975633;28;20604;-54
2022/11/07 00:19:17;;;;;;;14.40;11.10;;;;;;;7.31;100.00;100604.59;4978950;28;20795;-55
2022/11/07 00:21:44;;;;;;;12.80;9.97;;;;;;;7.30;100.00;100586.28;4980533;28;20237;-55
2022/11/07 00:24:11;;;;;;;12.87;11.23;;;;;;;7.32;100.00;100589.78;4983221;28;20241;-54
2022/11/07 00:26:38;;;;;;;13.63;11.10;;;;;;;7.07;100.00;100586.91;4982124;28;20234;-54
2022/11/07 00:29:04;;;;;;;11.80;10.60;;;;;;;7.02;100.00;100580.78;4978890;28;20237;-53
2022/11/07 00:31:31;;;;;;;11.93;10.10;;;;;;;7.03;100.00;100576.44;4983213;28;20242;-54
2022/11/07 00:33:59;;;;;;;14.30;10.17;;;;;;;7.14;100.00;100583.50;4977991;28;20253;-53
2022/11/07 00:36:27;;;;;;;11.97;9.90;;;;;;;7.07;100.00;100573.00;4982857;28;20236;-54
2022/11/07 00:38:54;;;;;;;13.47;10.77;;;;;;;7.07;100.00;100576.47;4977158;28;20240;-53
2022/11/07 00:41:21;;;;;;;12.77;10.97;;;;;;;7.02;100.00;100570.34;4982962;28;20225;-54
2022/11/07 00:43:48;;;;;;;10.87;8.93;;;;;;;7.08;100.00;100580.84;4976000;28;20231;-54
2022/11/07 00:46:16;;;;;;;14.07;10.40;;;;;;;7.12;100.00;100573.91;4984017;28;20238;-53
2022/11/07 00:48:42;;;;;;;14.43;10.70;;;;;;;7.37;100.00;100564.56;4969935;28;20781;-54
2022/11/07 00:51:13;;;;;;;12.57;10.67;;;;;;;7.56;100.00;100566.50;4974746;28;20237;-53
2022/11/07 00:53:40;;;;;;;13.03;10.93;;;;;;;7.37;100.00;100573.31;4966105;28;20254;-53
2022/11/07 00:56:08;;;;;;;10.90;8.97;;;;;;;7.50;100.00;100562.97;4973060;28;20249;-56
2022/11/07 00:58:35;;;;;;;12.63;9.03;;;;;;;7.38;100.00;100564.59;4975643;28;20709;-54
2022/11/07 01:01:07;;;;;;;11.10;9.87;;;;;;;7.30;100.00;100560.16;4984655;28;20269;-54
2022/11/07 01:06:19;;;;;;;11.60;9.60;;;;;;;7.34;100.00;100567.19;4975763;28;20241;-54
2022/11/07 01:08:46;;;;;;;12.80;10.20;;;;;;;7.21;100.00;100571.41;4977530;28;20244;-53
2022/11/07 01:11:12;;;;;;;13.30;10.17;;;;;;;7.17;100.00;100560.06;4975151;28;20226;-53
2022/11/07 01:13:39;;;;;;;12.70;9.53;;;;;;;7.26;100.00;100563.59;4984574;28;20241;-53
2022/11/07 01:16:08;;;;;;;11.03;9.13;;;;;;;7.23;100.00;100574.00;4977141;28;20241;-54
2022/11/07 01:18:35;;;;;;;12.70;9.47;;;;;;;7.28;100.00;100578.44;4981826;28;20222;-54
2022/11/07 01:21:04;;;;;;;14.10;10.63;;;;;;;7.25;100.00;100585.38;4971642;28;20900;-53
2022/11/07 01:23:32;;;;;;;13.53;9.93;;;;;;;7.27;100.00;100581.03;4981526;28;20241;-53
2022/11/07 01:25:58;;;;;;;10.67;9.37;;;;;;;7.33;100.00;100575.84;4973537;28;20243;-54
2022/11/07 01:28:25;;;;;;;11.00;9.73;;;;;;;7.34;100.00;100580.25;4979018;28;20230;-53
2022/11/07 01:30:51;;;;;;;11.27;9.03;;;;;;;7.33;100.00;100581.09;4980115;28;20719;-55
2022/11/07 01:33:17;;;;;;;10.87;9.37;;;;;;;7.39;100.00;100573.31;4979931;28;20618;-53
2022/11/07 01:35:44;;;;;;;12.73;9.73;;;;;;;7.46;100.00;100567.28;4980065;28;20241;-54
2022/11/07 01:38:10;;;;;;;11.90;9.30;;;;;;;7.51;100.00;100560.38;4976851;28;20260;-60
2022/11/07 01:43:22;;;;;;;9.17;8.13;;;;;;;7.48;100.00;100569.94;4972918;28;20226;-54
2022/11/07 01:45:49;;;;;;;9.70;8.63;;;;;;;7.45;100.00;100568.16;4981379;28;20237;-54
2022/11/07 01:48:15;;;;;;;10.23;9.20;;;;;;;7.43;100.00;100569.00;4979360;28;20246;-53
2022/11/07 01:50:42;;;;;;;11.17;9.50;;;;;;;7.46;100.00;100567.28;4981268;28;20696;-53
2022/11/07 01:53:08;;;;;;;10.47;8.47;;;;;;;7.44;100.00;100566.41;4975103;28;20238;-54
2022/11/07 01:55:35;;;;;;;10.77;9.30;;;;;;;7.43;100.00;100575.09;4977627;28;20242;-54
2022/11/07 01:58:05;;;;;;;12.27;9.20;;;;;;;7.40;100.00;100570.69;4976954;28;20248;-53
2022/11/07 02:00:33;;;;;;;13.87;9.60;;;;;;;7.40;100.00;100575.06;4970573;28;20238;-54
2022/11/07 02:03:01;;;;;;;13.73;8.47;;;;;;;7.38;100.00;100571.56;4984986;28;20236;-54
2022/11/07 02:05:38;;;;;;;10.23;8.13;;;;;;;7.41;100.00;100566.38;4984691;28;20238;-53
2022/11/07 02:08:06;;;;;;;9.30;8.30;;;;;;;7.39;100.00;100565.47;4977155;28;20229;-54
2022/11/07 02:10:34;;;;;;;15.23;8.20;;;;;;;7.41;100.00;100563.78;4989282;28;20238;-54
2022/11/07 02:13:00;;;;;;;10.50;7.70;;;;;;;7.51;100.00;100560.38;4987459;28;20242;-54
2022/11/07 02:15:29;;;;;;;10.57;8.73;;;;;;;7.44;100.00;100568.13;4986527;28;20230;-53
2022/11/07 02:17:55;;;;;;;9.00;8.07;;;;;;;7.49;100.00;100567.31;4975288;28;20723;-53
2022/11/07 02:20:21;;;;;;;9.83;8.10;;;;;;;7.47;100.00;100563.81;4976682;28;20740;-53
2022/11/07 02:22:51;;;;;;;11.63;8.67;;;;;;;7.50;100.00;100558.59;4985245;28;20234;-53
2022/11/07 02:25:20;;;;;;;8.97;7.23;;;;;;;7.50;100.00;100563.84;4982378;28;20242;-54
2022/11/07 02:27:48;;;;;;;9.37;7.77;;;;;;;7.61;100.00;100572.63;4986731;28;20260;-54
2022/11/07 02:30:16;;;;;;;9.23;7.63;;;;;;;7.55;100.00;100567.38;4985817;28;20233;-53
2022/11/07 02:32:43;;;;;;;9.07;7.80;;;;;;;7.52;100.00;100567.34;4988347;28;20238;-54
2022/11/07 02:35:45;;;;;;;10.47;8.00;;;;;;;7.56;100.00;100553.44;4978758;28;20230;-53
2022/11/07 02:38:16;;;;;;;9.63;8.13;;;;;;;7.53;100.00;100558.63;4979029;28;20235;-54
2022/11/07 02:40:46;;;;;;;9.33;7.97;;;;;;;7.67;100.00;100555.28;4982594;28;20265;-54
2022/11/07 02:43:13;;;;;;;9.80;8.47;;;;;;;7.68;100.00;100554.41;4985350;28;20238;-57
2022/11/07 02:45:42;;;;;;;10.60;7.63;;;;;;;7.64;100.00;100556.97;4983342;28;20237;-54
2022/11/07 02:48:08;;;;;;;11.17;7.90;;;;;;;7.59;100.00;100563.91;4981854;28;20241;-53
2022/11/07 02:50:35;;;;;;;9.40;7.77;;;;;;;7.70;100.00;100556.16;4983054;28;20253;-54
2022/11/07 02:53:01;;;;;;;11.53;8.87;;;;;;;7.60;100.00;100565.66;4987805;28;20238;-54
2022/11/07 02:55:27;;;;;;;9.70;8.33;;;;;;;7.62;100.00;100566.56;4982397;28;20269;-53
2022/11/07 02:57:55;;;;;;;7.80;7.07;;;;;;;7.67;100.00;100565.72;4986984;28;20233;-54
2022/11/07 03:00:22;;;;;;;9.40;7.57;;;;;;;7.63;100.00;100562.22;4983173;28;20242;-54
2022/11/07 03:02:49;;;;;;;8.73;7.70;;;;;;;7.64;100.00;100567.44;4982260;28;20644;-55
2022/11/07 03:05:17;;;;;;;7.13;6.43;;;;;;;7.67;100.00;100558.75;4985886;28;20312;-54
2022/11/07 03:07:44;;;;;;;9.67;8.57;;;;;;;7.75;100.00;100562.28;4986522;28;20246;-54
2022/11/07 03:10:11;;;;;;;9.40;8.20;;;;;;;7.80;100.00;100562.34;4990009;28;20596;-54
2022/11/07 03:12:37;;;;;;;7.93;7.10;;;;;;;7.78;100.00;100575.38;4987857;28;20840;-55
2022/11/07 03:15:07;;;;;;;7.03;6.43;;;;;;;7.83;100.00;100562.38;4981271;28;20250;-53
2022/11/07 03:17:33;;;;;;;8.10;7.30;;;;;;;7.88;100.00;100560.66;4985766;28;20240;-54
2022/11/07 03:20:00;;;;;;;9.40;7.40;;;;;;;7.92;100.00;100567.66;4982748;28;20238;-53
2022/11/07 03:22:26;;;;;;;9.53;7.63;;;;;;;7.82;100.00;100571.94;4978832;28;20463;-54
2022/11/07 03:24:53;;;;;;;7.73;6.63;;;;;;;7.88;100.00;100574.59;4987610;28;20258;-54
2022/11/07 03:27:20;;;;;;;8.00;7.13;;;;;;;7.87;100.00;100582.44;4981346;28;20226;-56
2022/11/07 03:29:46;;;;;;;9.10;7.70;;;;;;;7.86;100.00;100578.94;4983025;28;20237;-53
2022/11/07 03:32:14;;;;;;;8.50;7.67;;;;;;;7.87;100.00;100585.06;4986524;28;20231;-55
2022/11/07 03:34:40;;;;;;;7.73;7.00;;;;;;;7.95;100.00;100592.94;4990039;28;20237;-54
2022/11/07 03:37:07;;;;;;;8.80;7.00;;;;;;;7.88;100.00;100592.03;4988516;28;20230;-55
2022/11/07 03:39:33;;;;;;;11.07;7.50;;;;;;;7.86;100.00;100585.88;4980006;28;20669;-53
2022/11/07 03:42:00;;;;;;;8.43;7.53;;;;;;;7.98;100.00;100603.44;4981199;28;20617;-54
2022/11/07 03:44:26;;;;;;;7.13;6.43;;;;;;;8.00;100.00;100599.97;4988190;28;20245;-60
2022/11/07 03:46:53;;;;;;;7.40;6.47;;;;;;;8.09;100.00;100591.31;4982586;28;20234;-66
2022/11/07 03:49:20;;;;;;;8.30;7.20;;;;;;;8.11;100.00;100606.16;4979775;28;20233;-57
2022/11/07 03:51:47;;;;;;;9.43;7.87;;;;;;;8.02;100.00;100600.84;4986540;28;20774;-54
2022/11/07 03:54:13;;;;;;;8.03;7.10;;;;;;;8.05;100.00;100602.59;4975430;28;20621;-53
2022/11/07 03:56:40;;;;;;;8.37;7.13;;;;;;;8.05;100.00;100594.75;4981759;28;20285;-55
2022/11/07 03:59:06;;;;;;;10.20;7.57;;;;;;;7.96;100.00;100599.91;4985653;28;20242;-54
2022/11/07 04:01:33;;;;;;;7.90;7.10;;;;;;;7.99;100.00;100599.94;4987452;28;20910;-54
2022/11/07 04:03:59;;;;;;;9.70;7.50;;;;;;;8.05;100.00;100602.59;4986454;28;20234;-54
2022/11/07 04:06:27;;;;;;;7.30;6.43;;;;;;;7.97;100.00;100606.88;4980376;28;20234;-53
2022/11/07 04:08:54;;;;;;;8.37;7.17;;;;;;;8.06;100.00;100601.72;4986050;28;20604;-54
2022/11/07 04:19:28;;;;;;;7.13;6.43;;;;;;;7.95;100.00;100593.81;4978125;28;20245;-54
2022/11/07 04:21:57;;;;;;;7.77;6.93;;;;;;;7.97;100.00;100610.41;4985184;28;20230;-54
2022/11/07 04:24:24;;;;;;;8.27;7.33;;;;;;;8.02;100.00;100616.53;4983088;28;20241;-53
2022/11/07 04:29:34;;;;;;;9.87;7.80;;;;;;;7.98;100.00;100608.66;4982983;28;20240;-55
2022/11/07 04:32:00;;;;;;;7.77;6.70;;;;;;;7.96;100.00;100616.47;4986608;28;20242;-54
2022/11/07 04:34:27;;;;;;;6.97;6.20;;;;;;;8.16;100.00;100613.13;4988258;28;20241;-55
2022/11/07 04:36:53;;;;;;;7.90;7.10;;;;;;;8.03;100.00;100614.78;4979676;28;20234;-54
2022/11/07 04:39:21;;;;;;;8.27;7.43;;;;;;;8.10;100.00;100617.44;4975953;28;20242;-54
2022/11/07 04:41:48;;;;;;;10.60;7.43;;;;;;;8.18;100.00;100624.47;4985263;28;20245;-55
2022/11/07 04:44:14;;;;;;;7.60;6.80;;;;;;;8.04;100.00;100625.28;4985723;28;20246;-55
2022/11/07 04:46:41;;;;;;;8.00;7.20;;;;;;;7.99;100.00;100616.50;4985909;28;20249;-54
2022/11/07 04:49:07;;;;;;;7.67;6.90;;;;;;;8.08;100.00;100639.25;4983690;28;20234;-54
2022/11/07 04:51:34;;;;;;;8.83;7.10;;;;;;;8.01;100.00;100630.47;4982399;28;20759;-53
2022/11/07 04:54:00;;;;;;;7.20;6.60;;;;;;;8.07;100.00;100640.06;4983054;28;20237;-57
2022/11/07 04:56:28;;;;;;;7.27;6.57;;;;;;;8.06;100.00;100644.44;4974527;28;20269;-53
2022/11/07 04:58:55;;;;;;;6.27;5.67;;;;;;;8.03;100.00;100644.41;4981053;28;20234;-53
2022/11/07 05:01:21;;;;;;;9.43;6.73;;;;;;;8.07;100.00;100647.94;4979517;28;20230;-53
2022/11/07 05:03:48;;;;;;;7.67;5.80;;;;;;;8.13;100.00;100650.59;4969680;28;20589;-53
2022/11/07 05:06:14;;;;;;;6.73;6.03;;;;;;;8.17;100.00;100638.41;4983550;28;20238;-53
2022/11/07 05:08:41;;;;;;;7.10;6.40;;;;;;;8.09;100.00;100648.81;4984554;28;20238;-53
2022/11/07 05:11:07;;;;;;;6.53;5.90;;;;;;;8.13;100.00;100646.22;4977458;28;20253;-52
2022/11/07 05:13:35;;;;;;;6.43;5.47;;;;;;;8.18;100.00;100653.22;4979399;28;20253;-53
2022/11/07 05:16:01;;;;;;;8.73;6.60;;;;;;;8.12;100.00;100657.56;4976993;28;20235;-54
2022/11/07 05:18:28;;;;;;;9.13;5.30;;;;;;;8.18;100.00;100645.38;4979718;28;20225;-54
2022/11/07 05:20:55;;;;;;;6.60;5.60;;;;;;;8.19;100.00;100647.16;4975602;28;20229;-53
2022/11/07 05:23:21;;;;;;;6.17;5.37;;;;;;;8.13;100.00;100661.06;4980597;28;20237;-54
2022/11/07 05:25:49;;;;;;;6.57;5.43;;;;;;;8.16;100.00;100645.38;4981433;28;20714;-55
2022/11/07 05:28:17;;;;;;;7.90;6.87;;;;;;;8.17;100.00;100659.34;4971594;28;20241;-54
2022/11/07 05:30:45;;;;;;;7.37;5.87;;;;;;;8.20;100.00;100652.38;4983997;28;20230;-54
2022/11/07 05:33:13;;;;;;;5.60;5.10;;;;;;;8.28;100.00;100652.44;4981620;28;20234;-54
2022/11/07 05:35:40;;;;;;;7.47;4.93;;;;;;;8.22;100.00;100655.91;4985807;28;20245;-54
2022/11/07 05:38:06;;;;;;;5.73;5.23;;;;;;;8.24;100.00;100656.78;4989324;28;20764;-54
2022/11/07 05:40:35;;;;;;;6.90;6.17;;;;;;;8.32;100.00;100660.34;4985558;28;20609;-53
2022/11/07 05:43:02;;;;;;;5.20;4.60;;;;;;;8.35;100.00;100662.97;4989242;28;20602;-54
2022/11/07 05:45:29;;;;;;;8.87;4.97;;;;;;;8.33;100.00;100669.06;4985371;28;20229;-55
2022/11/07 05:48:01;;;;;;;6.40;5.43;;;;;;;8.39;100.00;100663.00;4985488;28;20609;-53
2022/11/07 05:50:27;;;;;;;5.80;5.20;;;;;;;8.35;100.00;100683.00;4978236;28;20248;-54
2022/11/07 05:52:54;;;;;;;5.80;5.20;;;;;;;8.28;100.00;100684.72;4982267;28;20242;-54
2022/11/07 05:55:21;;;;;;;6.37;5.37;;;;;;;8.38;100.00;100672.59;4979287;28;20242;-53
2022/11/07 05:57:47;;;;;;;6.57;5.90;;;;;;;8.31;100.00;100683.84;4982404;28;20234;-53
2022/11/07 06:00:15;;;;;;;5.20;4.80;;;;;;;8.36;100.00;100671.69;4975480;28;20245;-60
2022/11/07 06:02:41;;;;;;;5.87;5.17;;;;;;;8.29;100.00;100676.00;4983190;28;20233;-53
2022/11/07 06:05:09;;;;;;;5.07;4.63;;;;;;;8.35;100.00;100678.69;4987227;28;20229;-53
2022/11/07 06:07:37;;;;;;;5.97;5.37;;;;;;;8.42;100.00;100682.22;4981740;28;20237;-54
2022/11/07 06:10:04;;;;;;;4.57;4.17;;;;;;;8.32;100.00;100693.47;4982432;28;20238;-54
2022/11/07 06:12:31;;;;;;;5.77;5.17;;;;;;;8.36;100.00;100696.13;4985033;28;20230;-53
2022/11/07 06:14:58;;;;;;;5.00;4.43;;;;;;;8.33;100.00;100695.22;4985586;28;20728;-53
2022/11/07 06:17:24;;;;;;;6.43;5.83;;;;;;;8.35;100.00;100698.69;4982927;28;20245;-54
2022/11/07 06:19:51;;;;;;;4.63;4.00;;;;;;;8.44;100.00;100693.59;4978429;28;20589;-54
2022/11/07 06:22:18;;;;;;;5.07;4.57;;;;;;;8.38;100.00;100703.13;4978054;28;20229;-54
2022/11/07 06:24:45;;;;;;;5.37;4.97;;;;;;;8.40;100.00;100707.50;4984249;28;20234;-55
2022/11/07 06:27:13;;;;;;;5.80;5.10;;;;;;;8.50;100.00;100698.88;4981404;28;20713;-54
2022/11/07 06:29:39;;;;;;;6.43;4.57;;;;;;;8.55;100.00;100702.38;4984483;28;20296;-54
2022/11/07 06:32:06;;;;;;;4.93;4.43;;;;;;;8.49;100.00;100702.31;4974097;28;20231;-54
2022/11/07 06:34:32;;;;;;;5.33;4.83;;;;;;;8.52;100.00;100707.56;4973731;28;20615;-54
2022/11/07 06:36:58;;;;;;;6.33;4.40;;;;;;;8.54;100.00;100711.09;4982909;28;20238;-53
2022/11/07 06:39:26;;;;;;;7.73;4.93;;;;;;;8.49;100.00;100712.78;4977822;28;20238;-54
2022/11/07 06:41:53;;;;;;;6.97;5.23;;;;;;;8.46;100.00;100712.78;4986853;28;20226;-54
2022/11/07 06:44:19;;;;;;;5.83;4.90;;;;;;;8.49;100.00;100710.16;4980603;28;20915;-53
2022/11/07 06:46:46;;;;;;;6.30;4.63;;;;;;;8.51;100.00;100712.81;4973447;28;20235;-54
2022/11/07 06:49:13;;;;;;;6.97;5.00;;;;;;;8.51;100.00;100715.44;4980077;28;20253;-54
2022/11/07 06:51:39;;;;;;;7.40;4.77;;;;;;;8.45;100.00;100716.25;4983190;28;20837;-53
2022/11/07 06:54:06;;;;;;;5.60;4.43;;;;;;;8.45;100.00;100715.38;4987181;28;20230;-54
2022/11/07 06:56:33;;;;;;;4.50;4.10;;;;;;;8.46;100.00;100712.78;4980348;28;20230;-53
2022/11/07 06:59:00;;;;;;;8.67;5.97;;;;;;;8.51;100.00;100718.91;4974390;28;20632;-52
2022/11/07 07:01:26;;;;;;;5.30;4.33;;;;;;;8.62;100.00;100718.13;4978537;28;20234;-53
2022/11/07 07:03:53;;;;;;;5.70;4.33;;;;;;;8.57;100.00;100731.19;4978399;28;20245;-53
2022/11/07 07:06:19;;;;;;;4.63;4.17;;;;;;;8.56;100.00;100724.19;4985263;28;20245;-54
2022/11/07 07:08:46;;;;;;;4.80;4.30;;;;;;;8.57;100.00;100731.19;4981290;28;20704;-54
2022/11/07 07:11:14;;;;;;;5.23;4.40;;;;;;;8.64;100.00;100737.34;4980611;28;20242;-53
2022/11/07 07:13:42;;;;;;;4.30;3.67;;;;;;;8.59;100.00;100739.91;4983105;28;20226;-53
2022/11/07 07:16:08;;;;;;;4.90;4.07;;;;;;;8.75;100.00;100728.69;4982321;28;20241;-53
2022/11/07 07:18:35;;;;;;;5.90;4.17;;;;;;;8.73;100.00;100734.75;4979622;28;20242;-54
2022/11/07 07:21:04;;;;;;;4.47;4.00;;;;;;;8.74;100.00;100729.56;4979427;28;20246;-53
2022/11/07 07:23:32;;;;;;;4.50;3.80;;;;;;;8.80;100.00;100739.19;4971751;28;20235;-53
2022/11/07 07:25:58;;;;;;;4.10;3.70;;;;;;;8.73;100.00;100743.50;4981950;28;20230;-54
2022/11/07 07:28:24;;;;;;;4.80;4.17;;;;;;;8.75;100.00;100733.91;4979219;28;20242;-54
2022/11/07 07:30:52;;;;;;;3.83;3.53;;;;;;;8.78;100.00;100741.78;4982681;28;20238;-54
2022/11/07 07:33:19;;;;;;;4.43;3.50;;;;;;;8.80;100.00;100733.94;4980842;28;20831;-53
2022/11/07 07:35:45;;;;;;;3.80;3.40;;;;;;;8.79;100.00;100740.06;4982277;28;20261;-54
2022/11/07 07:38:13;;;;;;;4.43;3.83;;;;;;;8.78;100.00;100744.41;4980615;28;20234;-54
2022/11/07 07:40:39;;;;;;;3.87;3.33;;;;;;;8.87;100.00;100740.97;4982790;28;20221;-53
2022/11/07 07:43:06;;;;;;;7.07;4.33;;;;;;;8.83;100.00;100739.19;4984189;28;20662;-53
2022/11/07 07:45:32;;;;;;;4.10;3.70;;;;;;;8.93;100.00;100738.38;4986570;28;20237;-53
2022/11/07 07:48:03;;;;;;;5.63;3.77;;;;;;;8.98;100.00;100736.66;4984840;28;20233;-53
2022/11/07 07:50:30;;;;;;;3.47;3.10;;;;;;;8.97;100.00;100732.28;4983967;28;20260;-53
2022/11/07 07:52:57;;;;;;;4.80;3.77;;;;;;;8.93;100.00;100746.25;4977514;28;20248;-53
2022/11/07 07:55:23;;;;;;;5.13;3.77;;;;;;;9.01;100.00;100743.66;4970028;28;20297;-54
2022/11/07 07:57:50;;;;;;;3.60;3.10;;;;;;;9.04;100.00;100744.56;4981516;28;20230;-53
2022/11/07 08:00:17;;;;;;;4.00;3.60;;;;;;;9.05;100.00;100735.81;4983619;28;20234;-53
2022/11/07 08:02:43;;;;;;;4.07;3.67;;;;;;;9.08;100.00;100741.06;4984521;28;20233;-53
2022/11/07 08:05:11;;;;;;;4.00;3.60;;;;;;;9.20;100.00;100728.94;4978864;28;20236;-53
2022/11/07 08:07:44;;;;;;;3.63;3.33;;;;;;;9.25;100.00;100742.91;4979346;28;20674;-54
2022/11/07 08:10:11;;;;;;;3.20;2.90;;;;;;;9.29;100.00;100750.78;4975914;28;20559;-53
2022/11/07 08:12:43;;;;;;;3.83;2.97;;;;;;;9.30;100.00;100746.41;4986366;28;20708;-54
2022/11/07 08:15:11;;;;;;;4.03;2.97;;;;;;;9.41;100.00;100743.88;4983449;28;20234;-54
2022/11/07 08:17:37;;;;;;;4.00;3.10;;;;;;;9.49;100.00;100748.25;4990084;28;20233;-54
2022/11/07 08:20:05;;;;;;;3.93;3.20;;;;;;;9.65;100.00;100753.53;4982533;28;20237;-57
2022/11/07 08:22:32;;;;;;;3.07;2.87;;;;;;;9.65;100.00;100750.91;4985799;28;20242;-54
2022/11/07 08:24:59;;;;;;;3.83;2.87;;;;;;;9.73;100.00;100754.44;4978912;28;20230;-56
2022/11/07 08:27:25;;;;;;;3.30;3.00;;;;;;;9.71;100.00;100748.31;4991721;28;20226;-54
2022/11/07 08:29:52;;;;;;;3.47;2.80;;;;;;;9.83;100.00;100758.84;4990935;28;20233;-54
2022/11/07 08:32:18;;;;;;;2.50;2.27;;;;;;;9.91;100.00;100746.63;4987332;28;20762;-54
2022/11/07 08:34:45;;;;;;;5.37;3.00;;;;;;;10.04;100.00;100753.66;4981427;28;20236;-60
2022/11/07 08:37:11;;;;;;;3.17;2.57;;;;;;;10.03;100.00;100751.88;4984862;28;20447;-54
2022/11/07 08:39:39;;;;;;;4.50;3.23;;;;;;;10.11;100.00;100753.63;4976923;28;20233;-54
2022/11/07 08:42:05;;;;;;;3.20;2.67;;;;;;;10.24;100.00;100744.91;4976873;28;20242;-53
2022/11/07 08:44:33;;;;;;;5.20;2.60;;;;;;;10.24;100.00;100751.03;4983067;28;20242;-54
2022/11/07 08:47:00;;;;;;;4.70;3.57;;;;;;;10.28;100.00;100757.19;4984542;28;20298;-54
2022/11/07 08:49:26;;;;;;;3.73;3.07;;;;;;;10.29;100.00;100753.69;4983032;28;20237;-53
2022/11/07 08:51:53;;;;;;;3.07;2.10;;;;;;;10.26;100.00;100769.44;4980219;28;20253;-53
2022/11/07 08:54:20;;;;;;;3.70;2.77;;;;;;;10.30;100.00;100758.06;4975545;28;20239;-53
2022/11/07 08:56:48;;;;;;;3.13;2.40;;;;;;;10.30;100.00;100762.44;4976481;28;20237;-54
2022/11/07 08:59:14;;;;;;;2.63;2.17;;;;;;;10.39;100.00;100763.34;4975068;28;20854;-53
2022/11/07 09:01:41;;;;;;;3.17;2.87;;;;;;;10.36;100.00;100759.84;4983486;28;20245;-53
2022/11/07 09:04:07;;;;;;;2.40;2.20;;;;;;;10.33;100.00;100760.69;4977428;28;20612;-52
2022/11/07 09:06:34;;;;;;;2.90;2.17;;;;;;;10.33;100.00;100755.44;4979695;28;20241;-53
2022/11/07 09:09:01;;;;;;;4.30;2.23;;;;;;;10.44;100.00;100758.94;4976186;28;20782;-53
2022/11/07 09:11:28;;;;;;;11.97;10.53;;;;;;;10.43;100.00;100762.44;4982070;28;20238;-55
2022/11/07 09:13:57;;;;;;;3.67;2.13;;;;;;;10.42;100.00;100765.06;4976171;28;20254;-55
2022/11/07 09:16:24;;;;;;;2.10;1.90;;;;;;;10.47;100.00;100758.94;4972816;28;21167;-54
2022/11/07 09:18:52;;;;;;;2.10;2.00;;;;;;;10.52;100.00;100772.06;4981199;28;20237;-58
2022/11/07 09:21:19;;;;;;;3.93;2.23;;;;;;;10.61;100.00;100772.06;4982251;28;20240;-53
2022/11/07 09:23:45;;;;;;;1.97;1.87;;;;;;;10.68;100.00;100763.31;4978556;28;20225;-55
2022/11/07 09:26:12;;;;;;;2.80;1.80;;;;;;;10.75;100.00;100764.19;4980287;28;20282;-54
2022/11/07 09:28:38;;;;;;;3.60;3.00;;;;;;;10.84;100.00;100769.41;4983852;28;20696;-54
2022/11/07 09:31:06;;;;;;;2.77;2.13;;;;;;;11.02;99.26;100765.00;4978666;28;20729;-54
2022/11/07 09:33:33;;;;;;;2.70;1.83;;;;;;;11.17;97.87;100772.84;4973413;28;20260;-54
2022/11/07 09:36:00;;;;;;;3.30;2.30;;;;;;;11.32;97.49;100772.78;4979016;28;20249;-53
2022/11/07 09:38:27;;;;;;;3.33;2.00;;;;;;;11.35;97.01;100772.78;4977240;28;20668;-52
2022/11/07 09:41:04;;;;;;;2.03;1.83;;;;;;;11.25;97.12;100775.44;4974049;28;20305;-53
2022/11/07 09:43:44;;;;;;;1.97;1.77;;;;;;;11.34;96.98;100791.22;4968537;28;20234;-55
2022/11/07 09:46:20;;;;;;;3.07;2.13;;;;;;;11.33;96.56;100774.53;4972998;28;20237;-53
2022/11/07 09:48:50;;;;;;;2.07;1.50;;;;;;;11.34;97.16;100776.31;4970076;28;20233;-53
2022/11/07 09:51:24;;;;;;;2.60;2.10;;;;;;;11.47;96.46;100771.84;4977938;28;20230;-54
2022/11/07 09:53:56;;;;;;;2.10;1.90;;;;;;;11.49;96.47;100775.38;4981146;28;20234;-55
2022/11/07 09:56:22;;;;;;;1.63;1.53;;;;;;;11.55;96.08;100774.44;4976717;28;20838;-54
2022/11/07 09:58:53;;;;;;;3.40;1.80;;;;;;;11.65;95.25;100774.44;4972972;28;20236;-54
2022/11/07 10:01:21;;;;;;;2.17;1.60;;;;;;;11.80;94.91;100772.59;4974061;28;20671;-54
2022/11/07 10:03:48;;;;;;;4.27;1.70;;;;;;;11.84;93.83;100782.25;4980486;28;20234;-54
2022/11/07 10:06:21;;;;;;;2.60;1.40;;;;;;;11.94;93.79;100778.69;4980196;28;20329;-52
2022/11/07 10:08:52;;;;;;;1.53;1.43;;;;;;;11.98;92.95;100774.28;4978596;28;20226;-53
2022/11/07 10:11:30;;;;;;;7.30;2.33;;;;;;;12.11;92.40;100781.19;4967149;28;20238;-54
2022/11/07 10:14:00;;;;;;;5.53;2.40;;;;;;;12.10;92.05;100787.34;4980377;28;20225;-53
2022/11/07 10:16:36;;;;;;;2.00;1.83;;;;;;;12.11;92.43;100781.19;4981005;28;20234;-54
2022/11/07 10:19:13;;;;;;;2.30;2.07;;;;;;;12.11;91.95;100775.94;4978338;28;20264;-53
2022/11/07 10:21:44;;;;;;;2.15;1.40;;;;;;;12.19;92.46;100776.78;4980621;28;20241;-55
2022/11/07 10:24:26;;;;;;;3.60;2.00;;;;;;;12.21;91.88;100788.13;4977707;28;20237;-53
2022/11/07 10:26:54;;;;;;;5.77;2.50;;;;;;;12.23;91.61;100780.25;4977844;28;20997;-54
2022/11/07 10:29:23;;;;;;;3.63;2.00;;;;;;;12.34;91.70;100784.53;4981183;28;20700;-54
2022/11/07 10:31:55;;;;;;;2.15;1.40;;;;;;;12.45;91.48;100776.56;4976153;28;20248;-53
2022/11/07 10:34:26;;;;;;;3.70;2.00;;;;;;;12.44;91.00;100784.47;4978384;28;20234;-54
2022/11/07 10:36:53;;;;;;;4.47;2.20;;;;;;;12.53;90.36;100784.38;4981712;28;20234;-54
2022/11/07 10:39:20;;;;;;;5.65;1.90;;;;;;;12.61;89.85;100775.56;4978439;28;20237;-52
2022/11/07 10:41:51;;;;;;;2.28;1.70;;;;;;;12.56;89.72;100790.50;4979497;28;20234;-54
2022/11/07 10:44:21;;;;;;;3.90;1.80;;;;;;;12.63;89.12;100801.88;4976701;28;20689;-53
2022/11/07 10:46:48;;;;;;;3.70;1.88;;;;;;;12.62;89.46;100785.19;4969703;28;20317;-54
2022/11/07 10:49:22;;;;;;;2.07;1.77;;;;;;;12.68;89.15;100789.56;4973828;28;20277;-53
2022/11/07 10:51:49;;;;;;;4.85;3.00;;;;;;;12.69;89.94;100780.75;4980781;28;20881;-55
2022/11/07 10:54:20;;;;;;;4.53;1.93;;;;;;;12.82;89.45;100774.50;4978106;28;20284;-55
2022/11/07 10:56:49;;;;;;;1.65;1.35;;;;;;;12.71;89.63;100773.72;4973754;28;20289;-54
2022/11/07 10:59:24;;;;;;;2.05;1.83;;;;;;;12.77;89.28;100778.91;4978245;28;20241;-54
2022/11/07 11:01:51;;;;;;;3.85;1.65;;;;;;;12.82;88.95;100781.53;4980203;28;20291;-55
2022/11/07 11:04:22;;;;;;;3.38;1.65;;;;;;;12.82;88.15;100787.66;4977168;28;20229;-53
2022/11/07 11:06:57;;;;;;;2.67;1.60;;;;;;;12.77;88.75;100771.00;4975806;28;20874;-53
2022/11/07 11:09:29;;;;;;;5.55;1.77;;;;;;;12.84;88.22;100764.78;4985824;28;20233;-53
2022/11/07 11:11:56;;;;;;;2.60;1.60;;;;;;;12.95;88.02;100783.16;4982603;28;20237;-54
2022/11/07 11:14:23;;;;;;;3.30;2.20;;;;;;;12.93;88.75;100766.47;4985411;28;20230;-53
2022/11/07 11:16:52;;;;;;;1.65;1.55;;;;;;;12.97;88.80;100765.53;4980513;28;20226;-53
2022/11/07 11:19:22;;;;;;;5.88;2.67;;;;;;;13.03;87.20;100760.22;4987635;28;20242;-53
2022/11/07 11:21:50;;;;;;;1.60;1.50;;;;;;;13.07;87.08;100766.34;4986675;28;20268;-52
2022/11/07 11:24:26;;;;;;;4.55;1.65;;;;;;;13.04;87.27;100766.38;4985715;28;20226;-53
2022/11/07 11:26:53;;;;;;;4.80;1.40;;;;;;;13.02;87.75;100766.38;4987770;28;20241;-54
2022/11/07 11:29:28;;;;;;;4.60;1.70;;;;;;;13.01;88.10;100766.38;4982369;28;20249;-54
2022/11/07 11:31:55;;;;;;;4.57;2.13;;;;;;;12.99;87.47;100761.16;4980079;28;20232;-53
2022/11/07 11:34:28;;;;;;;1.85;1.50;;;;;;;12.98;88.10;100766.41;4980450;28;20238;-55
2022/11/07 11:36:57;;;;;;;2.78;1.80;;;;;;;12.98;88.58;100769.06;4971488;28;20245;-53
2022/11/07 11:39:27;;;;;;;3.13;1.70;;;;;;;13.08;87.86;100768.94;4981861;28;20230;-54
2022/11/07 11:41:55;;;;;;;1.30;1.20;;;;;;;13.04;86.96;100766.38;4983520;28;20233;-53